sensor_id;sensor_type;location;lat;lon;timestamp;temperature;humidity
45983;DHT22;31711;47.158;7.346;2022-07-21T00:00:24;20.10;99.90
45983;DHT22;31711;47.158;7.346;2022-07-21T00:02:51;20.20;99.90
45983;DHT22;31711;47.158;7.346;2022-07-21T00:05:17;20.20;99.90
45983;DHT22;31711;47.158;7.346;2022-07-21T00:07:44;20.20;99.90
45983;DHT22;31711;47.158;7.346;2022-07-21T00:10:10;20.20;99.90
45983;DHT22;31711;47.158;7.346;2022-07-21T00:12:37;20.30;99.90
45983;DHT22;31711;47.158;7.346;2022-07-21T00:15:04;20.30;99.90
45983;DHT22;31711;47.158;7.346;2022-07-21T00:17:31;20.20;99.90
45983;DHT22;31711;47.158;7.346;2022-07-21T00:19:57;20.30;99.90
45983;DHT22;31711;47.158;7.346;2022-07-21T00:22:23;20.30;99.90
45983;DHT22;31711;47.158;7.346;2022-07-21T00:24:49;20.30;99.90
45983;DHT22;31711;47.158;7.346;2022-07-21T00:27:15;20.30;99.90
45983;DHT22;31711;47.158;7.346;2022-07-21T00:29:41;20.40;99.90
45983;DHT22;31711;47.158;7.346;2022-07-21T00:32:06;20.30;99.90
45983;DHT22;31711;47.158;7.346;2022-07-21T00:34:33;20.30;99.90
45983;DHT22;31711;47.158;7.346;2022-07-21T00:36:59;20.30;99.90
45983;DHT22;31711;47.158;7.346;2022-07-21T00:39:25;20.30;99.90
45983;DHT22;31711;47.158;7.346;2022-07-21T00:41:51;20.30;99.90
45983;DHT22;31711;47.158;7.346;2022-07-21T00:44:21;20.30;99.90
45983;DHT22;31711;47.158;7.346;2022-07-21T00:46:48;20.30;99.90
45983;DHT22;31711;47.158;7.346;2022-07-21T00:49:14;20.20;99.90
45983;DHT22;31711;47.158;7.346;2022-07-21T00:51:40;20.20;99.90
45983;DHT22;31711;47.158;7.346;2022-07-21T00:54:06;20.20;99.90
45983;DHT22;31711;47.158;7.346;2022-07-21T00:56:32;20.30;99.90
45983;DHT22;31711;47.158;7.346;2022-07-21T00:58:58;20.20;99.90
45983;DHT22;31711;47.158;7.346;2022-07-21T01:01:23;20.20;99.90
45983;DHT22;31711;47.158;7.346;2022-07-21T01:03:49;20.30;99.90
45983;DHT22;31711;47.158;7.346;2022-07-21T01:06:15;20.30;99.90
45983;DHT22;31711;47.158;7.346;2022-07-21T01:08:41;20.30;99.90
45983;DHT22;31711;47.158;7.346;2022-07-21T01:11:07;20.20;99.90
45983;DHT22;31711;47.158;7.346;2022-07-21T01:13:33;20.20;99.90
45983;DHT22;31711;47.158;7.346;2022-07-21T01:15:59;20.30;99.90
45983;DHT22;31711;47.158;7.346;2022-07-21T01:18:25;20.30;99.90
45983;DHT22;31711;47.158;7.346;2022-07-21T01:20:53;20.30;99.90
45983;DHT22;31711;47.158;7.346;2022-07-21T01:23:21;20.30;99.90
45983;DHT22;31711;47.158;7.346;2022-07-21T01:25:48;20.30;99.90
45983;DHT22;31711;47.158;7.346;2022-07-21T01:28:14;20.30;99.90
45983;DHT22;31711;47.158;7.346;2022-07-21T01:30:40;20.30;99.90
45983;DHT22;31711;47.158;7.346;2022-07-21T01:33:06;20.30;99.90
45983;DHT22;31711;47.158;7.346;2022-07-21T01:35:32;20.40;99.90
45983;DHT22;31711;47.158;7.346;2022-07-21T01:37:59;20.30;99.90
45983;DHT22;31711;47.158;7.346;2022-07-21T01:40:25;20.30;99.90
45983;DHT22;31711;47.158;7.346;2022-07-21T01:43:10;20.30;99.90
45983;DHT22;31711;47.158;7.346;2022-07-21T01:45:36;20.30;99.90
45983;DHT22;31711;47.158;7.346;2022-07-21T01:48:02;20.30;99.90
45983;DHT22;31711;47.158;7.346;2022-07-21T01:50:30;20.30;99.90
45983;DHT22;31711;47.158;7.346;2022-07-21T01:52:57;20.30;99.90
45983;DHT22;31711;47.158;7.346;2022-07-21T01:55:24;20.20;99.90
45983;DHT22;31711;47.158;7.346;2022-07-21T01:57:51;20.10;99.90
45983;DHT22;31711;47.158;7.346;2022-07-21T02:00:18;20.10;99.90
45983;DHT22;31711;47.158;7.346;2022-07-21T02:02:44;20.10;99.90
45983;DHT22;31711;47.158;7.346;2022-07-21T02:05:10;20.20;99.90
45983;DHT22;31711;47.158;7.346;2022-07-21T02:07:36;20.20;99.90
45983;DHT22;31711;47.158;7.346;2022-07-21T02:10:02;20.20;99.90
45983;DHT22;31711;47.158;7.346;2022-07-21T02:12:28;20.20;99.90
45983;DHT22;31711;47.158;7.346;2022-07-21T02:14:54;20.30;99.90
45983;DHT22;31711;47.158;7.346;2022-07-21T02:17:20;20.30;99.90
45983;DHT22;31711;47.158;7.346;2022-07-21T02:19:46;20.20;99.90
45983;DHT22;31711;47.158;7.346;2022-07-21T02:22:12;20.20;99.90
45983;DHT22;31711;47.158;7.346;2022-07-21T02:24:38;20.20;99.90
45983;DHT22;31711;47.158;7.346;2022-07-21T02:27:05;20.20;99.90
45983;DHT22;31711;47.158;7.346;2022-07-21T02:29:31;20.30;99.90
45983;DHT22;31711;47.158;7.346;2022-07-21T02:31:57;20.30;99.90
45983;DHT22;31711;47.158;7.346;2022-07-21T02:34:23;20.30;99.90
45983;DHT22;31711;47.158;7.346;2022-07-21T02:36:49;20.30;99.90
45983;DHT22;31711;47.158;7.346;2022-07-21T02:39:15;20.30;99.90
45983;DHT22;31711;47.158;7.346;2022-07-21T02:41:41;20.20;99.90
45983;DHT22;31711;47.158;7.346;2022-07-21T02:44:07;20.00;99.90
45983;DHT22;31711;47.158;7.346;2022-07-21T02:46:33;19.80;99.90
45983;DHT22;31711;47.158;7.346;2022-07-21T02:48:59;19.60;99.90
45983;DHT22;31711;47.158;7.346;2022-07-21T02:51:25;19.60;99.90
45983;DHT22;31711;47.158;7.346;2022-07-21T02:53:51;19.60;99.90
45983;DHT22;31711;47.158;7.346;2022-07-21T02:56:17;19.70;99.90
45983;DHT22;31711;47.158;7.346;2022-07-21T02:58:43;19.70;99.90
45983;DHT22;31711;47.158;7.346;2022-07-21T03:01:09;19.60;99.90
45983;DHT22;31711;47.158;7.346;2022-07-21T03:03:36;19.50;99.90
45983;DHT22;31711;47.158;7.346;2022-07-21T03:06:04;19.60;99.90
45983;DHT22;31711;47.158;7.346;2022-07-21T03:08:32;19.50;99.90
45983;DHT22;31711;47.158;7.346;2022-07-21T03:10:58;19.50;99.90
45983;DHT22;31711;47.158;7.346;2022-07-21T03:13:24;19.50;99.90
45983;DHT22;31711;47.158;7.346;2022-07-21T03:15:50;19.50;99.90
45983;DHT22;31711;47.158;7.346;2022-07-21T03:18:16;19.50;99.90
45983;DHT22;31711;47.158;7.346;2022-07-21T03:20:43;19.50;99.90
45983;DHT22;31711;47.158;7.346;2022-07-21T03:23:09;19.50;99.90
45983;DHT22;31711;47.158;7.346;2022-07-21T03:25:36;19.60;99.90
45983;DHT22;31711;47.158;7.346;2022-07-21T03:28:02;19.60;99.90
45983;DHT22;31711;47.158;7.346;2022-07-21T03:30:28;19.50;99.90
45983;DHT22;31711;47.158;7.346;2022-07-21T03:32:55;19.50;99.90
45983;DHT22;31711;47.158;7.346;2022-07-21T03:35:21;19.60;99.90
45983;DHT22;31711;47.158;7.346;2022-07-21T03:37:56;19.60;99.90
45983;DHT22;31711;47.158;7.346;2022-07-21T03:40:24;19.70;99.90
45983;DHT22;31711;47.158;7.346;2022-07-21T03:42:56;19.70;99.90
45983;DHT22;31711;47.158;7.346;2022-07-21T03:45:22;19.60;99.90
45983;DHT22;31711;47.158;7.346;2022-07-21T03:47:48;19.60;99.90
45983;DHT22;31711;47.158;7.346;2022-07-21T03:50:15;19.60;99.90
45983;DHT22;31711;47.158;7.346;2022-07-21T03:52:44;19.60;99.90
45983;DHT22;31711;47.158;7.346;2022-07-21T03:55:11;19.70;99.90
45983;DHT22;31711;47.158;7.346;2022-07-21T04:00:21;19.70;99.90
45983;DHT22;31711;47.158;7.346;2022-07-21T04:02:47;19.70;99.90
45983;DHT22;31711;47.158;7.346;2022-07-21T04:05:14;19.60;99.90
45983;DHT22;31711;47.158;7.346;2022-07-21T04:07:43;19.50;99.90
45983;DHT22;31711;47.158;7.346;2022-07-21T04:10:12;19.50;99.90
45983;DHT22;31711;47.158;7.346;2022-07-21T04:12:38;19.50;99.90
45983;DHT22;31711;47.158;7.346;2022-07-21T04:15:05;19.40;99.90
45983;DHT22;31711;47.158;7.346;2022-07-21T04:17:32;19.40;99.90
45983;DHT22;31711;47.158;7.346;2022-07-21T04:19:58;19.40;99.90
45983;DHT22;31711;47.158;7.346;2022-07-21T04:22:24;19.20;99.90
45983;DHT22;31711;47.158;7.346;2022-07-21T04:24:50;19.20;99.90
45983;DHT22;31711;47.158;7.346;2022-07-21T04:27:17;19.20;99.90
45983;DHT22;31711;47.158;7.346;2022-07-21T04:29:43;19.30;99.90
45983;DHT22;31711;47.158;7.346;2022-07-21T04:32:09;19.30;99.90
45983;DHT22;31711;47.158;7.346;2022-07-21T04:34:35;19.40;99.90
45983;DHT22;31711;47.158;7.346;2022-07-21T04:37:01;19.30;99.90
45983;DHT22;31711;47.158;7.346;2022-07-21T04:39:26;19.30;99.90
45983;DHT22;31711;47.158;7.346;2022-07-21T04:41:54;19.30;99.90
45983;DHT22;31711;47.158;7.346;2022-07-21T04:44:20;19.30;99.90
45983;DHT22;31711;47.158;7.346;2022-07-21T04:46:46;19.40;99.90
45983;DHT22;31711;47.158;7.346;2022-07-21T04:49:13;19.40;99.90
45983;DHT22;31711;47.158;7.346;2022-07-21T04:51:39;19.40;99.90
45983;DHT22;31711;47.158;7.346;2022-07-21T04:54:06;19.40;99.90
45983;DHT22;31711;47.158;7.346;2022-07-21T04:56:32;19.40;99.90
45983;DHT22;31711;47.158;7.346;2022-07-21T04:59:00;19.30;99.90
45983;DHT22;31711;47.158;7.346;2022-07-21T05:01:26;19.40;99.90
45983;DHT22;31711;47.158;7.346;2022-07-21T05:03:52;19.40;99.90
45983;DHT22;31711;47.158;7.346;2022-07-21T05:06:18;19.50;99.90
45983;DHT22;31711;47.158;7.346;2022-07-21T05:08:44;19.60;99.90
45983;DHT22;31711;47.158;7.346;2022-07-21T05:11:10;19.60;99.90
45983;DHT22;31711;47.158;7.346;2022-07-21T05:13:36;19.50;99.90
45983;DHT22;31711;47.158;7.346;2022-07-21T05:16:02;19.60;99.90
45983;DHT22;31711;47.158;7.346;2022-07-21T05:18:29;19.60;99.90
45983;DHT22;31711;47.158;7.346;2022-07-21T05:20:55;19.60;99.90
45983;DHT22;31711;47.158;7.346;2022-07-21T05:23:21;19.50;99.90
45983;DHT22;31711;47.158;7.346;2022-07-21T05:25:47;19.60;99.90
45983;DHT22;31711;47.158;7.346;2022-07-21T05:28:13;19.60;99.90
45983;DHT22;31711;47.158;7.346;2022-07-21T05:30:39;19.50;99.90
45983;DHT22;31711;47.158;7.346;2022-07-21T05:33:05;19.50;99.90
45983;DHT22;31711;47.158;7.346;2022-07-21T05:35:31;19.50;99.90
45983;DHT22;31711;47.158;7.346;2022-07-21T05:37:57;19.60;99.90
45983;DHT22;31711;47.158;7.346;2022-07-21T05:40:23;19.70;99.90
45983;DHT22;31711;47.158;7.346;2022-07-21T05:42:49;19.70;99.90
45983;DHT22;31711;47.158;7.346;2022-07-21T05:45:15;19.60;99.90
45983;DHT22;31711;47.158;7.346;2022-07-21T05:47:41;19.60;99.90
45983;DHT22;31711;47.158;7.346;2022-07-21T05:50:08;19.90;99.90
45983;DHT22;31711;47.158;7.346;2022-07-21T05:52:35;19.90;99.90
45983;DHT22;31711;47.158;7.346;2022-07-21T05:55:01;19.90;99.90
45983;DHT22;31711;47.158;7.346;2022-07-21T05:57:27;20.00;99.90
45983;DHT22;31711;47.158;7.346;2022-07-21T05:59:53;20.10;99.90
45983;DHT22;31711;47.158;7.346;2022-07-21T06:02:19;20.20;99.90
45983;DHT22;31711;47.158;7.346;2022-07-21T06:04:45;20.10;99.90
45983;DHT22;31711;47.158;7.346;2022-07-21T06:07:10;20.00;99.90
45983;DHT22;31711;47.158;7.346;2022-07-21T06:09:36;20.00;99.90
45983;DHT22;31711;47.158;7.346;2022-07-21T06:12:02;20.10;99.90
45983;DHT22;31711;47.158;7.346;2022-07-21T06:14:28;20.10;99.90
45983;DHT22;31711;47.158;7.346;2022-07-21T06:16:54;20.10;99.90
45983;DHT22;31711;47.158;7.346;2022-07-21T06:19:20;20.00;99.90
45983;DHT22;31711;47.158;7.346;2022-07-21T06:21:46;20.10;99.90
45983;DHT22;31711;47.158;7.346;2022-07-21T06:24:13;20.30;99.90
45983;DHT22;31711;47.158;7.346;2022-07-21T06:26:39;20.40;99.90
45983;DHT22;31711;47.158;7.346;2022-07-21T06:29:06;20.40;99.90
45983;DHT22;31711;47.158;7.346;2022-07-21T06:31:33;20.30;99.90
45983;DHT22;31711;47.158;7.346;2022-07-21T06:33:59;20.40;99.90
45983;DHT22;31711;47.158;7.346;2022-07-21T06:36:25;20.40;99.90
45983;DHT22;31711;47.158;7.346;2022-07-21T06:38:51;20.60;99.90
45983;DHT22;31711;47.158;7.346;2022-07-21T06:41:17;20.70;99.90
45983;DHT22;31711;47.158;7.346;2022-07-21T06:43:43;20.80;99.90
45983;DHT22;31711;47.158;7.346;2022-07-21T06:46:08;20.90;99.90
45983;DHT22;31711;47.158;7.346;2022-07-21T06:48:34;21.00;99.90
45983;DHT22;31711;47.158;7.346;2022-07-21T06:51:00;21.00;99.90
45983;DHT22;31711;47.158;7.346;2022-07-21T06:53:26;21.20;99.90
45983;DHT22;31711;47.158;7.346;2022-07-21T06:55:53;21.20;99.90
45983;DHT22;31711;47.158;7.346;2022-07-21T06:58:23;21.30;99.90
45983;DHT22;31711;47.158;7.346;2022-07-21T07:00:51;21.60;99.90
45983;DHT22;31711;47.158;7.346;2022-07-21T07:03:17;21.70;99.90
45983;DHT22;31711;47.158;7.346;2022-07-21T07:05:45;21.80;99.90
45983;DHT22;31711;47.158;7.346;2022-07-21T07:08:12;21.90;99.90
45983;DHT22;31711;47.158;7.346;2022-07-21T07:10:40;22.00;99.90
45983;DHT22;31711;47.158;7.346;2022-07-21T07:13:06;22.10;99.90
45983;DHT22;31711;47.158;7.346;2022-07-21T07:15:33;22.10;99.90
45983;DHT22;31711;47.158;7.346;2022-07-21T07:17:59;22.40;99.90
45983;DHT22;31711;47.158;7.346;2022-07-21T07:20:25;22.50;99.90
45983;DHT22;31711;47.158;7.346;2022-07-21T07:22:51;22.60;99.90
45983;DHT22;31711;47.158;7.346;2022-07-21T07:25:17;22.70;99.90
45983;DHT22;31711;47.158;7.346;2022-07-21T07:27:44;22.80;99.90
45983;DHT22;31711;47.158;7.346;2022-07-21T07:30:11;22.80;99.90
45983;DHT22;31711;47.158;7.346;2022-07-21T07:32:38;22.80;99.90
45983;DHT22;31711;47.158;7.346;2022-07-21T07:35:06;22.60;99.90
45983;DHT22;31711;47.158;7.346;2022-07-21T07:37:37;22.60;99.90
45983;DHT22;31711;47.158;7.346;2022-07-21T07:40:06;22.60;99.90
45983;DHT22;31711;47.158;7.346;2022-07-21T07:42:36;22.60;99.90
45983;DHT22;31711;47.158;7.346;2022-07-21T07:45:04;22.50;99.90
45983;DHT22;31711;47.158;7.346;2022-07-21T07:47:30;22.30;99.90
45983;DHT22;31711;47.158;7.346;2022-07-21T07:49:56;22.10;99.90
45983;DHT22;31711;47.158;7.346;2022-07-21T07:52:22;22.20;99.90
45983;DHT22;31711;47.158;7.346;2022-07-21T07:54:49;22.30;99.90
45983;DHT22;31711;47.158;7.346;2022-07-21T07:57:14;22.40;99.90
45983;DHT22;31711;47.158;7.346;2022-07-21T07:59:41;22.60;99.90
45983;DHT22;31711;47.158;7.346;2022-07-21T08:02:07;22.50;99.90
45983;DHT22;31711;47.158;7.346;2022-07-21T08:04:33;22.70;99.90
45983;DHT22;31711;47.158;7.346;2022-07-21T08:06:59;22.80;99.90
45983;DHT22;31711;47.158;7.346;2022-07-21T08:09:24;22.80;99.90
45983;DHT22;31711;47.158;7.346;2022-07-21T08:11:50;22.80;99.90
45983;DHT22;31711;47.158;7.346;2022-07-21T08:14:17;22.90;99.90
45983;DHT22;31711;47.158;7.346;2022-07-21T08:16:43;22.90;99.90
45983;DHT22;31711;47.158;7.346;2022-07-21T08:19:09;22.90;99.90
45983;DHT22;31711;47.158;7.346;2022-07-21T08:21:35;23.00;99.90
45983;DHT22;31711;47.158;7.346;2022-07-21T08:24:02;23.10;99.90
45983;DHT22;31711;47.158;7.346;2022-07-21T08:26:28;23.20;99.90
45983;DHT22;31711;47.158;7.346;2022-07-21T08:28:56;23.30;99.90
45983;DHT22;31711;47.158;7.346;2022-07-21T08:31:22;23.40;99.90
45983;DHT22;31711;47.158;7.346;2022-07-21T08:33:50;23.40;99.90
45983;DHT22;31711;47.158;7.346;2022-07-21T08:36:16;23.40;99.90
45983;DHT22;31711;47.158;7.346;2022-07-21T08:38:43;23.40;99.90
45983;DHT22;31711;47.158;7.346;2022-07-21T08:41:09;23.60;99.90
45983;DHT22;31711;47.158;7.346;2022-07-21T08:43:36;23.70;99.90
45983;DHT22;31711;47.158;7.346;2022-07-21T08:46:02;23.80;99.90
45983;DHT22;31711;47.158;7.346;2022-07-21T08:48:29;23.80;99.90
45983;DHT22;31711;47.158;7.346;2022-07-21T08:50:56;23.70;99.90
45983;DHT22;31711;47.158;7.346;2022-07-21T08:53:23;23.80;99.90
45983;DHT22;31711;47.158;7.346;2022-07-21T08:55:50;24.00;99.90
45983;DHT22;31711;47.158;7.346;2022-07-21T08:58:16;24.10;99.90
45983;DHT22;31711;47.158;7.346;2022-07-21T09:00:46;24.30;99.90
45983;DHT22;31711;47.158;7.346;2022-07-21T09:05:39;24.30;99.90
45983;DHT22;31711;47.158;7.346;2022-07-21T09:08:05;24.00;99.90
45983;DHT22;31711;47.158;7.346;2022-07-21T09:10:32;23.80;99.90
45983;DHT22;31711;47.158;7.346;2022-07-21T09:13:04;24.00;99.90
45983;DHT22;31711;47.158;7.346;2022-07-21T09:15:32;24.30;99.90
45983;DHT22;31711;47.158;7.346;2022-07-21T09:18:08;24.50;99.90
45983;DHT22;31711;47.158;7.346;2022-07-21T09:20:35;24.70;99.90
45983;DHT22;31711;47.158;7.346;2022-07-21T09:23:07;24.80;99.90
45983;DHT22;31711;47.158;7.346;2022-07-21T09:25:36;24.90;99.90
45983;DHT22;31711;47.158;7.346;2022-07-21T09:28:17;25.10;99.90
45983;DHT22;31711;47.158;7.346;2022-07-21T09:33:25;25.10;99.90
45983;DHT22;31711;47.158;7.346;2022-07-21T09:35:57;25.10;99.90
45983;DHT22;31711;47.158;7.346;2022-07-21T09:38:25;25.20;99.90
45983;DHT22;31711;47.158;7.346;2022-07-21T09:40:52;25.30;99.90
45983;DHT22;31711;47.158;7.346;2022-07-21T09:43:35;25.40;99.90
45983;DHT22;31711;47.158;7.346;2022-07-21T09:46:18;25.60;99.90
45983;DHT22;31711;47.158;7.346;2022-07-21T09:48:47;25.70;99.90
45983;DHT22;31711;47.158;7.346;2022-07-21T09:53:49;25.00;99.90
45983;DHT22;31711;47.158;7.346;2022-07-21T09:56:17;24.90;99.90
45983;DHT22;31711;47.158;7.346;2022-07-21T09:58:46;25.30;99.90
45983;DHT22;31711;47.158;7.346;2022-07-21T10:01:13;25.10;99.90
45983;DHT22;31711;47.158;7.346;2022-07-21T10:03:41;24.90;99.90
45983;DHT22;31711;47.158;7.346;2022-07-21T10:06:08;25.20;99.90
45983;DHT22;31711;47.158;7.346;2022-07-21T10:08:35;25.40;99.90
45983;DHT22;31711;47.158;7.346;2022-07-21T10:11:02;25.50;99.90
45983;DHT22;31711;47.158;7.346;2022-07-21T10:13:28;25.60;99.90
45983;DHT22;31711;47.158;7.346;2022-07-21T10:15:54;25.80;99.90
45983;DHT22;31711;47.158;7.346;2022-07-21T10:18:30;25.80;99.90
45983;DHT22;31711;47.158;7.346;2022-07-21T10:21:04;26.00;99.90
45983;DHT22;31711;47.158;7.346;2022-07-21T10:23:39;25.90;99.30
45983;DHT22;31711;47.158;7.346;2022-07-21T10:26:08;26.00;99.90
45983;DHT22;31711;47.158;7.346;2022-07-21T10:28:35;26.00;99.80
45983;DHT22;31711;47.158;7.346;2022-07-21T10:31:13;26.00;99.90
45983;DHT22;31711;47.158;7.346;2022-07-21T10:36:10;26.00;99.70
45983;DHT22;31711;47.158;7.346;2022-07-21T10:38:37;26.00;99.90
45983;DHT22;31711;47.158;7.346;2022-07-21T10:41:05;26.30;99.90
45983;DHT22;31711;47.158;7.346;2022-07-21T10:45:58;25.90;99.90
45983;DHT22;31711;47.158;7.346;2022-07-21T10:48:51;26.20;99.90
45983;DHT22;31711;47.158;7.346;2022-07-21T10:51:17;26.50;99.90
45983;DHT22;31711;47.158;7.346;2022-07-21T10:53:43;26.30;99.90
45983;DHT22;31711;47.158;7.346;2022-07-21T10:56:26;26.50;99.90
45983;DHT22;31711;47.158;7.346;2022-07-21T10:58:53;26.70;99.90
45983;DHT22;31711;47.158;7.346;2022-07-21T11:01:22;26.60;98.50
45983;DHT22;31711;47.158;7.346;2022-07-21T11:04:14;26.40;98.00
45983;DHT22;31711;47.158;7.346;2022-07-21T11:06:43;26.60;99.90
45983;DHT22;31711;47.158;7.346;2022-07-21T11:09:17;26.90;99.60
45983;DHT22;31711;47.158;7.346;2022-07-21T11:12:00;26.40;97.70
45983;DHT22;31711;47.158;7.346;2022-07-21T11:14:39;26.40;99.90
45983;DHT22;31711;47.158;7.346;2022-07-21T11:17:07;26.80;99.50
45983;DHT22;31711;47.158;7.346;2022-07-21T11:19:47;27.10;97.60
45983;DHT22;31711;47.158;7.346;2022-07-21T11:22:20;26.90;97.70
45983;DHT22;31711;47.158;7.346;2022-07-21T11:25:03;27.10;98.00
45983;DHT22;31711;47.158;7.346;2022-07-21T11:27:32;27.00;97.40
45983;DHT22;31711;47.158;7.346;2022-07-21T11:29:59;27.10;98.10
45983;DHT22;31711;47.158;7.346;2022-07-21T11:32:26;27.40;96.50
45983;DHT22;31711;47.158;7.346;2022-07-21T11:35:02;27.30;97.80
45983;DHT22;31711;47.158;7.346;2022-07-21T11:37:33;27.50;98.50
45983;DHT22;31711;47.158;7.346;2022-07-21T11:40:00;27.90;98.60
45983;DHT22;31711;47.158;7.346;2022-07-21T11:42:27;27.70;95.90
45983;DHT22;31711;47.158;7.346;2022-07-21T11:44:54;27.80;97.00
45983;DHT22;31711;47.158;7.346;2022-07-21T11:47:20;28.00;97.00
45983;DHT22;31711;47.158;7.346;2022-07-21T11:49:52;28.00;96.40
45983;DHT22;31711;47.158;7.346;2022-07-21T11:52:18;27.60;95.90
45983;DHT22;31711;47.158;7.346;2022-07-21T11:54:49;27.70;97.70
45983;DHT22;31711;47.158;7.346;2022-07-21T11:57:16;28.00;96.70
45983;DHT22;31711;47.158;7.346;2022-07-21T11:59:44;28.30;97.60
45983;DHT22;31711;47.158;7.346;2022-07-21T12:02:12;28.50;96.30
45983;DHT22;31711;47.158;7.346;2022-07-21T12:07:19;28.50;96.90
45983;DHT22;31711;47.158;7.346;2022-07-21T12:09:49;28.90;97.00
45983;DHT22;31711;47.158;7.346;2022-07-21T12:12:15;28.70;95.80
45983;DHT22;31711;47.158;7.346;2022-07-21T12:14:52;28.90;95.70
45983;DHT22;31711;47.158;7.346;2022-07-21T12:17:35;28.70;94.80
45983;DHT22;31711;47.158;7.346;2022-07-21T12:20:03;28.50;93.60
45983;DHT22;31711;47.158;7.346;2022-07-21T12:22:44;28.00;93.50
45983;DHT22;31711;47.158;7.346;2022-07-21T12:25:13;27.90;94.00
45983;DHT22;31711;47.158;7.346;2022-07-21T12:27:43;28.10;96.30
45983;DHT22;31711;47.158;7.346;2022-07-21T12:30:28;28.80;96.60
45983;DHT22;31711;47.158;7.346;2022-07-21T12:33:05;29.10;95.50
45983;DHT22;31711;47.158;7.346;2022-07-21T12:35:32;29.70;96.50
45983;DHT22;31711;47.158;7.346;2022-07-21T12:38:05;30.00;94.80
45983;DHT22;31711;47.158;7.346;2022-07-21T12:40:33;30.30;95.40
45983;DHT22;31711;47.158;7.346;2022-07-21T12:43:04;30.40;94.90
45983;DHT22;31711;47.158;7.346;2022-07-21T12:45:30;30.20;92.90
45983;DHT22;31711;47.158;7.346;2022-07-21T12:48:32;29.30;92.80
45983;DHT22;31711;47.158;7.346;2022-07-21T12:53:27;29.70;95.50
45983;DHT22;31711;47.158;7.346;2022-07-21T12:55:54;30.20;95.50
45983;DHT22;31711;47.158;7.346;2022-07-21T12:58:20;30.60;94.70
45983;DHT22;31711;47.158;7.346;2022-07-21T13:00:46;30.40;92.20
45983;DHT22;31711;47.158;7.346;2022-07-21T13:03:12;29.30;92.40
45983;DHT22;31711;47.158;7.346;2022-07-21T13:05:38;29.20;92.80
45983;DHT22;31711;47.158;7.346;2022-07-21T13:08:04;29.50;94.40
45983;DHT22;31711;47.158;7.346;2022-07-21T13:10:30;30.00;93.20
45983;DHT22;31711;47.158;7.346;2022-07-21T13:12:56;30.10;93.10
45983;DHT22;31711;47.158;7.346;2022-07-21T13:15:22;30.30;92.80
45983;DHT22;31711;47.158;7.346;2022-07-21T13:17:48;30.30;93.20
45983;DHT22;31711;47.158;7.346;2022-07-21T13:20:14;30.50;92.50
45983;DHT22;31711;47.158;7.346;2022-07-21T13:22:41;30.30;90.80
45983;DHT22;31711;47.158;7.346;2022-07-21T13:25:08;30.30;92.40
45983;DHT22;31711;47.158;7.346;2022-07-21T13:27:35;30.60;92.40
45983;DHT22;31711;47.158;7.346;2022-07-21T13:30:03;30.10;91.10
45983;DHT22;31711;47.158;7.346;2022-07-21T13:32:30;30.50;93.50
45983;DHT22;31711;47.158;7.346;2022-07-21T13:34:55;31.00;94.40
45983;DHT22;31711;47.158;7.346;2022-07-21T13:37:22;31.30;92.80
45983;DHT22;31711;47.158;7.346;2022-07-21T13:39:48;31.20;91.50
45983;DHT22;31711;47.158;7.346;2022-07-21T13:42:14;31.40;91.80
45983;DHT22;31711;47.158;7.346;2022-07-21T13:44:40;31.50;92.10
45983;DHT22;31711;47.158;7.346;2022-07-21T13:47:06;31.60;90.80
45983;DHT22;31711;47.158;7.346;2022-07-21T13:49:32;31.60;91.00
45983;DHT22;31711;47.158;7.346;2022-07-21T13:51:57;31.80;91.60
45983;DHT22;31711;47.158;7.346;2022-07-21T13:54:23;31.60;89.10
45983;DHT22;31711;47.158;7.346;2022-07-21T13:56:49;31.50;88.10
45983;DHT22;31711;47.158;7.346;2022-07-21T13:59:16;31.40;91.30
45983;DHT22;31711;47.158;7.346;2022-07-21T14:01:42;31.50;90.70
45983;DHT22;31711;47.158;7.346;2022-07-21T14:04:08;31.60;90.90
45983;DHT22;31711;47.158;7.346;2022-07-21T14:06:34;32.00;90.50
45983;DHT22;31711;47.158;7.346;2022-07-21T14:09:01;31.80;87.70
45983;DHT22;31711;47.158;7.346;2022-07-21T14:11:27;31.70;89.30
45983;DHT22;31711;47.158;7.346;2022-07-21T14:13:54;30.90;89.90
45983;DHT22;31711;47.158;7.346;2022-07-21T14:16:20;30.50;88.80
45983;DHT22;31711;47.158;7.346;2022-07-21T14:18:47;30.60;90.70
45983;DHT22;31711;47.158;7.346;2022-07-21T14:21:13;30.40;89.60
45983;DHT22;31711;47.158;7.346;2022-07-21T14:23:39;30.30;90.00
45983;DHT22;31711;47.158;7.346;2022-07-21T14:26:06;30.60;90.70
45983;DHT22;31711;47.158;7.346;2022-07-21T14:28:32;30.30;90.20
45983;DHT22;31711;47.158;7.346;2022-07-21T14:30:58;30.00;89.30
45983;DHT22;31711;47.158;7.346;2022-07-21T14:33:25;30.20;91.10
45983;DHT22;31711;47.158;7.346;2022-07-21T14:35:51;30.50;90.80
45983;DHT22;31711;47.158;7.346;2022-07-21T14:38:16;30.60;90.10
45983;DHT22;31711;47.158;7.346;2022-07-21T14:40:43;30.70;91.40
45983;DHT22;31711;47.158;7.346;2022-07-21T14:43:09;30.80;91.10
45983;DHT22;31711;47.158;7.346;2022-07-21T14:45:35;31.00;91.20
45983;DHT22;31711;47.158;7.346;2022-07-21T14:48:01;30.80;88.60
45983;DHT22;31711;47.158;7.346;2022-07-21T14:50:28;30.80;91.30
45983;DHT22;31711;47.158;7.346;2022-07-21T14:52:55;30.70;90.20
45983;DHT22;31711;47.158;7.346;2022-07-21T14:55:21;30.60;89.80
45983;DHT22;31711;47.158;7.346;2022-07-21T14:57:51;30.50;90.20
45983;DHT22;31711;47.158;7.346;2022-07-21T15:00:18;30.40;89.90
45983;DHT22;31711;47.158;7.346;2022-07-21T15:02:44;30.00;89.90
45983;DHT22;31711;47.158;7.346;2022-07-21T15:05:10;29.90;90.10
45983;DHT22;31711;47.158;7.346;2022-07-21T15:07:36;30.00;88.80
45983;DHT22;31711;47.158;7.346;2022-07-21T15:10:03;29.80;89.30
45983;DHT22;31711;47.158;7.346;2022-07-21T15:12:29;29.80;90.40
45983;DHT22;31711;47.158;7.346;2022-07-21T15:14:55;29.80;88.90
45983;DHT22;31711;47.158;7.346;2022-07-21T15:17:21;29.70;90.70
45983;DHT22;31711;47.158;7.346;2022-07-21T15:19:47;29.90;90.90
45983;DHT22;31711;47.158;7.346;2022-07-21T15:22:13;29.80;90.90
45983;DHT22;31711;47.158;7.346;2022-07-21T15:24:38;29.80;91.20
45983;DHT22;31711;47.158;7.346;2022-07-21T15:27:04;29.70;91.00
45983;DHT22;31711;47.158;7.346;2022-07-21T15:29:30;29.30;90.70
45983;DHT22;31711;47.158;7.346;2022-07-21T15:31:57;29.00;90.90
45983;DHT22;31711;47.158;7.346;2022-07-21T15:34:22;29.10;90.30
45983;DHT22;31711;47.158;7.346;2022-07-21T15:36:48;29.20;90.80
45983;DHT22;31711;47.158;7.346;2022-07-21T15:39:14;29.20;90.30
45983;DHT22;31711;47.158;7.346;2022-07-21T15:41:40;29.20;90.40
45983;DHT22;31711;47.158;7.346;2022-07-21T15:44:06;29.20;90.60
45983;DHT22;31711;47.158;7.346;2022-07-21T15:46:33;29.20;89.60
45983;DHT22;31711;47.158;7.346;2022-07-21T15:48:59;29.30;90.90
45983;DHT22;31711;47.158;7.346;2022-07-21T15:51:25;29.30;90.30